Airfield :
LOGIN :

Register | Disclaimer

   EN    FR    IT 

 










Legend :    VFR   Marginal VFR   IFR   Intensive IFR   Very Intensive IFR
Visi :
Ceiling :
>= 8 km
>= 3000ft
5 to 8 km
1000 to 3000 ft
1500m to 5 km
500 to 1000 ft
800 to 1500m
200 to 500 ft
< 800m
< 200 ft
Symbols :   Thunderstorms  Fog  Heavy snow  Heavy precipitations  Wind > 20 kt
SIGMETs :     Misc.  Thunderstorms  Icing  Turbulence  Mountain Waves  Volcanic Ashes






- Airport Elevation : 124 ft
- IATA code : NHT


EGWU - RAF Northolt

CURRENT METAR :
  • 172150Z 30002KT 5000 HZ SKC M01/M02 Q1039 TEMPO 2000 BR

EXPIRED METARs :
  • 172137Z 29002KT 0900 FZFG SCT001 M01/M02 Q1039 TEMPO 2000 NSC RMK RED TEMPO YLO2
  • 172120Z 29001KT CAVOK M00/M01 Q1039 BECMG 7000 BR RMK BLU BECMG WHT
  • 172050Z 29002KT CAVOK M00/M01 Q1039 BECMG 7000 BR
  • 172020Z 28003KT CAVOK 00/M01 Q1039 BECMG 7000 BR RMK BLU BECMG WHT
  • 171950Z 26002KT CAVOK 02/01 Q1039 BECMG 7000 BR RMK BLU BECMG WHT
  • 171922Z 03001KT CAVOK 01/00 Q1039 BECMG 7000 BR RMK BLU BECMG WHT

TAF TAF EGWU
Valid from the 17 at 21:00 until the 18 at 15:00 UTC


171957Z 1721/1815 VRB02KT CAVOK
PROB40 1721/1811 3000 MIFG
PROB30 1721/1811 0400 FG VV///
PROB30
TEMPO 1722/1809 FZFG
PROB30
TEMPO 1812/1815 BKN009



MET'MAP, your aeronautical weather chart ! - Copyright ORBIFLY December 2007 - Disclaimer

ORBIFLY MET'MAP TEAM :

Programming & Development : Alexandra Zaïnal
Concept & original design : Baudouin d'Aumeries
Assistance for programming : Marc-Olivier Méhu
Technical & hardware support : Manuel Goepfert

Contact : metmap@orbifly.com




SOURCES & CREDITS :

   NOAA